Time;durP1;ratioP1;P1;durP2;ratioP2;P2;SDS_P1;SDS_P2;PMS_P1;PMS_P2;Temp;Humidity;BMP_temperature;BMP_pressure;BME280_temperature;BME280_humidity;BME280_pressure;Samples;Min_cycle;Max_cycle;Signal;HPM_P1;HPM_P2
2022/09/11 00:01:04;;;;;;;13.10;10.88;;;13.80;99.90;;;;;;4990941;28;20054;-72
2022/09/11 00:03:30;;;;;;;11.80;10.13;;;13.80;99.90;;;;;;5006301;28;20042;-71
2022/09/11 00:06:01;;;;;;;321.17;25.88;;;13.70;99.90;;;;;;5010921;28;20048;-72
2022/09/11 00:08:29;;;;;;;35.00;18.05;;;13.70;99.90;;;;;;5009243;28;20069;-72
2022/09/11 00:11:03;;;;;;;25.98;16.30;;;13.70;99.90;;;;;;4993517;28;20142;-72
2022/09/11 00:13:30;;;;;;;31.17;19.48;;;13.70;99.90;;;;;;4994534;28;20077;-72
2022/09/11 00:15:56;;;;;;;37.72;19.92;;;13.70;99.90;;;;;;5011353;28;20048;-72
2022/09/11 00:18:22;;;;;;;30.52;18.65;;;13.70;99.90;;;;;;5004232;28;20038;-72
2022/09/11 00:20:50;;;;;;;31.17;18.15;;;13.70;99.90;;;;;;4994716;28;20044;-72
2022/09/11 00:23:18;;;;;;;35.55;20.52;;;13.80;99.90;;;;;;5008915;28;20494;-72
2022/09/11 00:25:45;;;;;;;38.92;21.90;;;13.80;99.90;;;;;;4997212;28;20061;-72
2022/09/11 00:28:16;;;;;;;55.85;29.17;;;13.90;99.90;;;;;;5010291;28;20050;-72
2022/09/11 00:30:46;;;;;;;45.45;23.92;;;14.00;99.90;;;;;;4994973;28;20454;-72
2022/09/11 00:33:13;;;;;;;41.80;23.15;;;14.00;99.90;;;;;;5009822;28;20569;-72
2022/09/11 00:35:40;;;;;;;43.78;25.23;;;14.00;99.90;;;;;;5010626;28;20030;-72
2022/09/11 00:38:07;;;;;;;56.33;26.98;;;14.00;99.90;;;;;;4992728;28;20488;-72
2022/09/11 00:40:47;;;;;;;41.85;24.23;;;14.00;99.90;;;;;;4976234;28;20042;-72
2022/09/11 00:43:16;;;;;;;47.33;24.90;;;14.00;99.90;;;;;;4998537;28;20085;-72
2022/09/11 00:45:48;;;;;;;43.28;25.25;;;14.00;99.90;;;;;;5006879;28;20048;-72
2022/09/11 00:48:19;;;;;;;40.55;24.50;;;14.00;99.90;;;;;;5011448;28;20050;-72
2022/09/11 00:50:47;;;;;;;41.83;24.90;;;14.00;99.90;;;;;;5010435;28;20042;-72
2022/09/11 00:53:16;;;;;;;45.65;26.02;;;14.00;99.90;;;;;;5004379;28;20367;-72
2022/09/11 00:55:49;;;;;;;46.90;27.42;;;14.00;99.90;;;;;;5010841;28;20430;-72
2022/09/11 00:58:18;;;;;;;45.40;25.95;;;14.10;99.90;;;;;;4975526;28;20391;-72
2022/09/11 01:00:44;;;;;;;54.90;24.52;;;14.10;99.90;;;;;;4988627;28;20088;-72
2022/09/11 01:03:11;;;;;;;36.95;21.17;;;14.10;99.90;;;;;;5010573;28;20124;-72
2022/09/11 01:05:40;;;;;;;31.48;19.80;;;14.00;99.90;;;;;;5010358;28;20137;-72
2022/09/11 01:08:06;;;;;;;41.42;24.17;;;14.00;99.90;;;;;;5009326;28;20449;-72
2022/09/11 01:10:51;;;;;;;29.33;18.58;;;14.00;99.90;;;;;;4994306;28;20124;-72
2022/09/11 01:13:55;;;;;;;25.60;16.45;;;14.10;99.90;;;;;;5008103;28;20498;-72
2022/09/11 01:16:24;;;;;;;23.60;14.55;;;14.00;99.90;;;;;;5002097;28;20088;-71
2022/09/11 01:19:07;;;;;;;28.52;16.92;;;14.00;99.90;;;;;;4998374;28;20042;-72
2022/09/11 01:21:55;;;;;;;34.97;20.67;;;14.00;99.90;;;;;;5014689;28;20478;-72
2022/09/11 01:24:48;;;;;;;52.25;24.42;;;14.10;99.90;;;;;;5013082;28;20045;-72
2022/09/11 01:27:36;;;;;;;44.03;24.85;;;14.10;99.90;;;;;;4996504;28;20128;-72
2022/09/11 01:30:09;;;;;;;36.03;21.67;;;14.10;99.90;;;;;;4981342;28;20133;-72
2022/09/11 01:32:41;;;;;;;36.25;22.13;;;14.10;99.90;;;;;;5009089;28;20116;-71
2022/09/11 01:35:25;;;;;;;35.40;22.58;;;14.00;99.90;;;;;;5012365;28;20048;-71
2022/09/11 01:37:58;;;;;;;39.17;23.77;;;14.00;99.90;;;;;;4997887;28;20049;-72
2022/09/11 01:40:30;;;;;;;37.13;23.50;;;14.00;99.90;;;;;;5012711;28;20108;-72
2022/09/11 01:43:05;;;;;;;40.85;23.48;;;14.10;99.90;;;;;;5004429;28;20045;-71
2022/09/11 01:45:35;;;;;;;40.30;24.00;;;14.10;99.90;;;;;;4984180;28;20052;-72
2022/09/11 01:48:02;;;;;;;31.20;19.33;;;14.00;99.90;;;;;;5010233;28;20056;-71
2022/09/11 01:50:29;;;;;;;33.40;20.55;;;14.00;99.90;;;;;;4997815;28;20045;-72
2022/09/11 01:52:59;;;;;;;30.67;19.92;;;13.90;99.90;;;;;;5002427;28;20452;-72
2022/09/11 01:55:33;;;;;;;57.88;23.02;;;13.90;99.90;;;;;;5014097;28;20052;-72
2022/09/11 01:58:20;;;;;;;38.15;21.85;;;13.80;99.90;;;;;;4997506;28;20038;-72
2022/09/11 02:00:49;;;;;;;39.15;23.13;;;13.80;99.90;;;;;;5013068;28;20056;-72
2022/09/11 02:03:27;;;;;;;33.60;21.67;;;13.80;99.90;;;;;;4991676;28;20382;-72
2022/09/11 02:06:03;;;;;;;35.67;22.75;;;13.80;99.90;;;;;;5013536;28;20099;-72
2022/09/11 02:08:45;;;;;;;38.53;22.88;;;13.90;99.90;;;;;;4997382;28;20064;-72
2022/09/11 02:11:13;;;;;;;35.10;22.02;;;13.90;99.90;;;;;;4997036;28;20517;-72
2022/09/11 02:13:48;;;;;;;36.03;20.85;;;13.90;99.90;;;;;;4996469;28;20050;-71
2022/09/11 02:16:36;;;;;;;27.60;18.90;;;13.90;99.90;;;;;;5012783;28;20054;-72
2022/09/11 02:19:10;;;;;;;27.48;18.35;;;14.00;99.90;;;;;;4997136;28;20041;-72
2022/09/11 02:21:39;;;;;;;28.60;19.33;;;14.00;99.90;;;;;;5011684;28;20037;-72
2022/09/11 02:24:05;;;;;;;28.60;19.05;;;14.10;99.90;;;;;;4977368;28;20061;-72
2022/09/11 02:26:38;;;;;;;25.15;16.83;;;14.20;99.90;;;;;;5009659;28;20053;-72
2022/09/11 02:29:04;;;;;;;34.10;20.65;;;14.30;99.90;;;;;;4993904;28;20038;-72
2022/09/11 02:31:32;;;;;;;29.38;18.98;;;14.30;99.90;;;;;;5026514;28;20080;-72
2022/09/11 02:33:57;;;;;;;37.28;21.00;;;14.30;99.90;;;;;;5012199;28;20065;-72
2022/09/11 02:36:44;;;;;;;32.75;20.45;;;14.30;99.90;;;;;;4997186;28;20172;-72
2022/09/11 02:39:33;;;;;;;31.90;20.83;;;14.40;99.90;;;;;;4996171;28;20048;-72
2022/09/11 02:41:59;;;;;;;34.80;21.33;;;14.40;99.90;;;;;;4980201;28;20057;-72
2022/09/11 02:44:52;;;;;;;42.38;22.33;;;14.40;99.90;;;;;;4998245;28;20054;-72
2022/09/11 02:47:44;;;;;;;33.13;21.70;;;14.40;99.90;;;;;;5011503;28;20397;-72
2022/09/11 02:50:28;;;;;;;33.13;20.00;;;14.40;99.90;;;;;;5021470;28;20111;-72
2022/09/11 02:53:02;;;;;;;35.67;22.40;;;14.40;99.90;;;;;;5012930;28;20081;-72
2022/09/11 02:55:49;;;;;;;36.70;22.80;;;14.40;99.90;;;;;;5013101;28;20129;-73
2022/09/11 02:58:25;;;;;;;74.32;18.58;;;14.40;99.90;;;;;;5009785;28;20041;-73
2022/09/11 03:00:55;;;;;;;19.50;13.50;;;14.40;99.90;;;;;;5006923;28;20046;-73
2022/09/11 03:03:21;;;;;;;25.13;12.82;;;14.20;99.90;;;;;;4993113;28;20125;-72
2022/09/11 03:05:46;;;;;;;34.83;14.40;;;14.10;99.90;;;;;;4993023;28;20129;-72
2022/09/11 03:08:16;;;;;;;129.13;17.17;;;14.00;99.90;;;;;;4992784;28;20078;-72
2022/09/11 03:10:45;;;;;;;593.63;34.40;;;13.90;99.90;;;;;;4992873;28;20129;-72
2022/09/11 03:13:13;;;;;;;25.88;16.63;;;13.90;99.90;;;;;;5004707;28;20487;-72
2022/09/11 03:15:42;;;;;;;28.80;18.08;;;13.80;99.90;;;;;;5006999;28;20112;-72
2022/09/11 03:18:09;;;;;;;26.70;18.50;;;13.80;99.90;;;;;;5012528;28;20049;-72
2022/09/11 03:20:35;;;;;;;29.75;18.52;;;13.80;99.90;;;;;;4996331;28;20503;-72
2022/09/11 03:23:01;;;;;;;23.92;17.20;;;13.80;99.90;;;;;;4995959;28;20057;-72
2022/09/11 03:25:30;;;;;;;27.73;19.15;;;13.80;99.90;;;;;;5012543;28;20049;-72
2022/09/11 03:27:56;;;;;;;22.08;13.00;;;13.70;99.90;;;;;;4993016;28;20053;-72
2022/09/11 03:30:22;;;;;;;15.60;11.25;;;13.70;99.90;;;;;;5012579;28;20053;-71
2022/09/11 03:32:48;;;;;;;15.82;11.30;;;13.60;99.90;;;;;;4995888;28;20044;-72
2022/09/11 03:35:15;;;;;;;23.88;7.40;;;13.60;99.90;;;;;;5011580;28;20095;-71
2022/09/11 03:37:40;;;;;;;63.05;9.20;;;13.50;99.90;;;;;;5012205;28;20489;-72
2022/09/11 03:40:07;;;;;;;14.10;7.90;;;13.50;99.90;;;;;;5011186;28;20081;-71
2022/09/11 03:42:33;;;;;;;13.75;10.50;;;13.40;99.90;;;;;;5009563;28;20060;-72
2022/09/11 03:44:58;;;;;;;22.55;8.63;;;13.40;99.90;;;;;;4990949;28;20490;-71
2022/09/11 03:47:25;;;;;;;40.85;10.18;;;13.40;99.90;;;;;;5000210;28;20491;-71
2022/09/11 03:49:52;;;;;;;558.53;30.08;;;13.40;99.90;;;;;;4992538;28;20053;-71
2022/09/11 03:52:18;;;;;;;189.23;19.70;;;13.30;99.90;;;;;;4976405;28;20125;-71
2022/09/11 03:54:46;;;;;;;42.50;18.10;;;13.30;99.90;;;;;;5017375;28;20521;-72
2022/09/11 03:57:12;;;;;;;31.05;20.02;;;13.30;99.90;;;;;;5005352;28;20121;-72
2022/09/11 03:59:38;;;;;;;84.07;21.98;;;13.30;99.90;;;;;;5005983;28;20042;-71
2022/09/11 04:02:04;;;;;;;27.60;17.45;;;13.30;99.90;;;;;;4990808;28;20034;-72
2022/09/11 04:04:30;;;;;;;26.50;17.80;;;13.30;99.90;;;;;;5008576;28;20479;-72
2022/09/11 04:06:56;;;;;;;22.25;14.88;;;13.30;99.90;;;;;;5008580;28;20046;-71
2022/09/11 04:09:22;;;;;;;25.80;17.17;;;13.30;99.90;;;;;;5023613;28;20046;-71
2022/09/11 04:11:47;;;;;;;29.92;17.98;;;13.30;99.90;;;;;;4995047;28;20049;-72
2022/09/11 04:14:13;;;;;;;30.00;18.58;;;13.30;99.90;;;;;;4989664;28;20042;-72
2022/09/11 04:16:39;;;;;;;50.53;19.70;;;13.30;99.90;;;;;;4993305;28;20044;-72
2022/09/11 04:19:05;;;;;;;36.33;23.23;;;13.30;99.90;;;;;;5008904;28;20045;-72
2022/09/11 04:21:33;;;;;;;33.22;20.52;;;13.30;99.90;;;;;;4995351;28;20053;-72
2022/09/11 04:23:59;;;;;;;286.77;20.80;;;13.30;99.90;;;;;;4979274;28;20184;-71
2022/09/11 04:26:27;;;;;;;207.38;12.63;;;13.20;99.90;;;;;;5010329;28;20138;-72
2022/09/11 04:28:53;;;;;;;316.77;18.20;;;13.00;99.90;;;;;;4997055;28;20414;-72
2022/09/11 04:31:20;;;;;;;101.40;13.70;;;13.00;99.90;;;;;;5010723;28;20049;-71
2022/09/11 04:33:47;;;;;;;236.57;16.33;;;12.90;99.90;;;;;;4978982;28;20045;-71
2022/09/11 04:36:16;;;;;;;18.02;12.90;;;12.90;99.90;;;;;;5011555;28;20038;-72
2022/09/11 04:38:43;;;;;;;22.23;13.45;;;13.00;99.90;;;;;;5010997;28;20077;-72
2022/09/11 04:41:09;;;;;;;24.48;16.65;;;12.90;99.90;;;;;;4992777;28;20052;-72
2022/09/11 04:43:37;;;;;;;26.13;17.25;;;12.90;99.90;;;;;;5005199;28;20112;-72
2022/09/11 04:46:05;;;;;;;18.17;13.90;;;12.90;99.90;;;;;;5026065;28;20057;-72
2022/09/11 04:48:32;;;;;;;228.40;16.30;;;13.00;99.90;;;;;;5012626;28;20042;-72
2022/09/11 04:51:04;;;;;;;108.35;11.82;;;12.90;99.90;;;;;;4983153;28;20042;-73
2022/09/11 04:53:33;;;;;;;24.00;12.63;;;12.90;99.90;;;;;;4995009;28;20061;-72
2022/09/11 04:56:07;;;;;;;22.40;13.88;;;12.80;99.90;;;;;;4999956;28;20133;-72
2022/09/11 04:58:34;;;;;;;19.92;14.10;;;12.80;99.90;;;;;;5021475;28;20077;-72
2022/09/11 05:01:04;;;;;;;18.70;13.75;;;12.80;99.90;;;;;;5012449;28;20046;-72
2022/09/11 05:03:30;;;;;;;20.85;13.57;;;12.80;99.90;;;;;;5015059;28;20057;-72
2022/09/11 05:05:56;;;;;;;12.98;10.35;;;12.80;99.90;;;;;;5013442;28;20468;-71
2022/09/11 05:08:28;;;;;;;18.55;12.82;;;12.80;99.90;;;;;;5014821;28;20041;-72
2022/09/11 05:10:54;;;;;;;22.33;15.75;;;12.80;99.90;;;;;;4968922;28;20137;-72
2022/09/11 05:13:20;;;;;;;68.10;13.38;;;12.80;99.90;;;;;;5014619;28;20141;-71
2022/09/11 05:15:46;;;;;;;10.50;9.40;;;12.70;99.90;;;;;;4998738;28;20053;-71
2022/09/11 05:18:12;;;;;;;7.68;6.97;;;12.60;99.90;;;;;;4997971;28;20049;-71
2022/09/11 05:20:38;;;;;;;7.68;6.63;;;12.60;99.90;;;;;;4995850;28;20063;-71
2022/09/11 05:23:06;;;;;;;10.35;8.63;;;12.60;99.90;;;;;;5014685;28;20360;-71
2022/09/11 05:25:32;;;;;;;42.28;12.27;;;12.60;99.90;;;;;;5030120;28;20053;-71
2022/09/11 05:27:58;;;;;;;82.20;13.68;;;12.60;99.90;;;;;;5007662;28;20042;-71
2022/09/11 05:30:24;;;;;;;25.30;15.35;;;12.60;99.90;;;;;;4990498;28;20038;-71
2022/09/11 05:32:56;;;;;;;18.90;13.63;;;12.70;99.90;;;;;;4980604;28;20108;-72
2022/09/11 05:35:25;;;;;;;23.30;17.25;;;12.70;99.90;;;;;;4998347;28;20116;-71
2022/09/11 05:37:51;;;;;;;28.40;18.58;;;12.80;99.90;;;;;;4980996;28;20161;-72
2022/09/11 05:40:16;;;;;;;26.42;17.00;;;12.80;99.90;;;;;;4979288;28;20901;-72
2022/09/11 05:42:42;;;;;;;153.63;17.13;;;12.80;99.90;;;;;;4997860;28;20494;-71
2022/09/11 05:45:08;;;;;;;27.70;17.45;;;12.80;99.90;;;;;;5014408;28;20033;-71
2022/09/11 05:47:34;;;;;;;27.63;17.83;;;12.90;99.90;;;;;;5013481;28;20466;-71
2022/09/11 05:50:00;;;;;;;25.77;16.58;;;12.90;99.90;;;;;;4998023;28;20052;-71
2022/09/11 05:52:28;;;;;;;28.27;18.77;;;13.10;99.90;;;;;;4990148;28;20366;-72
2022/09/11 05:54:55;;;;;;;25.40;17.75;;;13.20;99.90;;;;;;5009041;28;20386;-71
2022/09/11 05:57:21;;;;;;;27.85;18.52;;;13.30;99.90;;;;;;4997920;28;20052;-71
2022/09/11 05:59:47;;;;;;;28.85;19.30;;;13.30;99.90;;;;;;4996372;28;20049;-71
2022/09/11 06:02:13;;;;;;;27.85;18.00;;;13.40;99.90;;;;;;5013219;28;20126;-71
2022/09/11 06:04:38;;;;;;;24.88;17.50;;;13.50;99.90;;;;;;4977843;28;20129;-71
2022/09/11 06:07:04;;;;;;;28.77;17.75;;;13.60;99.90;;;;;;4993835;28;20046;-73
2022/09/11 06:09:30;;;;;;;26.42;18.02;;;13.80;99.90;;;;;;5013851;28;20137;-71
2022/09/11 06:11:56;;;;;;;26.27;18.30;;;13.90;99.90;;;;;;5012458;28;20064;-71
2022/09/11 06:14:22;;;;;;;21.85;16.88;;;14.00;99.90;;;;;;4997607;28;20429;-71
2022/09/11 06:16:48;;;;;;;24.20;17.20;;;14.10;99.90;;;;;;5013105;28;20041;-71
2022/09/11 06:19:14;;;;;;;27.55;16.92;;;14.20;99.90;;;;;;4996999;28;20092;-72
2022/09/11 06:21:40;;;;;;;23.88;16.83;;;14.30;99.90;;;;;;5011492;28;20091;-71
2022/09/11 06:24:06;;;;;;;22.58;17.05;;;14.40;99.90;;;;;;5009390;28;20042;-72
2022/09/11 06:26:34;;;;;;;23.63;18.35;;;14.50;99.90;;;;;;4994103;28;20042;-71
2022/09/11 06:29:00;;;;;;;22.13;18.35;;;14.60;99.90;;;;;;4977980;28;20480;-71
2022/09/11 06:31:26;;;;;;;18.63;15.88;;;14.80;99.90;;;;;;4980141;28;20061;-71
2022/09/11 06:33:53;;;;;;;20.70;16.92;;;14.90;99.90;;;;;;5012675;28;20057;-71
2022/09/11 06:36:22;;;;;;;21.73;17.48;;;15.00;99.90;;;;;;5012472;28;20053;-71
2022/09/11 06:38:53;;;;;;;25.55;19.02;;;15.10;99.90;;;;;;5013073;28;20095;-72
2022/09/11 06:41:19;;;;;;;63.17;22.70;;;15.20;99.90;;;;;;5013487;28;20049;-72
2022/09/11 06:43:45;;;;;;;68.63;23.20;;;15.30;99.90;;;;;;5009766;28;20057;-72
2022/09/11 06:46:17;;;;;;;61.78;24.40;;;15.30;99.90;;;;;;4993480;28;20042;-73
2022/09/11 06:48:45;;;;;;;66.55;24.90;;;15.40;99.90;;;;;;4996560;28;20045;-72
2022/09/11 06:51:13;;;;;;;67.25;25.90;;;15.50;99.90;;;;;;4995404;28;20044;-72
2022/09/11 06:53:39;;;;;;;58.20;25.20;;;15.60;99.90;;;;;;5000382;28;20132;-72
2022/09/11 06:56:08;;;;;;;56.97;25.55;;;15.70;99.90;;;;;;5012204;28;20045;-72
2022/09/11 06:58:34;;;;;;;52.20;24.33;;;15.80;99.90;;;;;;5012986;28;20120;-72
2022/09/11 07:01:05;;;;;;;51.05;25.90;;;15.90;99.90;;;;;;4979724;28;20044;-71
2022/09/11 07:03:31;;;;;;;43.00;24.65;;;15.90;99.90;;;;;;4995527;28;20627;-72
2022/09/11 07:05:57;;;;;;;33.38;22.08;;;16.10;99.90;;;;;;4972051;28;20070;-71
2022/09/11 07:08:23;;;;;;;41.53;23.80;;;16.20;99.90;;;;;;5012605;28;20548;-71
2022/09/11 07:10:49;;;;;;;42.35;25.05;;;16.30;99.90;;;;;;5012221;28;20132;-72
2022/09/11 07:13:15;;;;;;;41.25;24.73;;;16.50;99.90;;;;;;5012279;28;20048;-72
2022/09/11 07:15:42;;;;;;;45.15;26.88;;;16.60;99.90;;;;;;5011086;28;20034;-72
2022/09/11 07:18:08;;;;;;;40.60;24.83;;;16.80;99.90;;;;;;5012868;28;20363;-72
2022/09/11 07:20:34;;;;;;;35.97;23.08;;;16.80;99.90;;;;;;5012309;28;20053;-72
2022/09/11 07:23:00;;;;;;;37.05;24.75;;;17.00;99.90;;;;;;4979732;28;20057;-72
2022/09/11 07:25:26;;;;;;;39.45;25.38;;;17.20;99.90;;;;;;4994278;28;20125;-72
2022/09/11 07:27:52;;;;;;;34.28;22.45;;;17.20;99.90;;;;;;4976674;28;20046;-72
2022/09/11 07:30:18;;;;;;;40.45;25.30;;;17.50;99.90;;;;;;5000982;28;20133;-72
2022/09/11 07:32:45;;;;;;;33.13;21.77;;;17.40;99.90;;;;;;4996181;28;20294;-72
2022/09/11 07:35:11;;;;;;;32.47;22.38;;;17.70;99.90;;;;;;5004650;28;20120;-72
2022/09/11 07:37:37;;;;;;;33.42;23.15;;;17.80;99.90;;;;;;4995872;28;20510;-72
2022/09/11 07:40:04;;;;;;;29.58;21.83;;;17.90;99.90;;;;;;4995510;28;20045;-72
2022/09/11 07:42:29;;;;;;;27.95;20.15;;;18.00;99.90;;;;;;4990935;28;20042;-72
2022/09/11 07:44:55;;;;;;;29.17;19.20;;;18.20;99.90;;;;;;4977852;28;20065;-72
2022/09/11 07:47:21;;;;;;;27.52;19.00;;;18.30;99.90;;;;;;4976519;28;20045;-72
2022/09/11 07:49:49;;;;;;;27.15;18.90;;;18.30;99.90;;;;;;4995190;28;20046;-72
2022/09/11 07:52:17;;;;;;;29.92;20.58;;;18.50;99.90;;;;;;5009697;28;20037;-72
2022/09/11 07:54:43;;;;;;;30.50;19.33;;;18.60;99.90;;;;;;4986285;28;20049;-72
2022/09/11 07:57:10;;;;;;;23.98;17.38;;;18.70;99.90;;;;;;4991716;28;20399;-72
2022/09/11 07:59:35;;;;;;;27.67;17.60;;;18.70;99.90;;;;;;4985454;28;20122;-72
2022/09/11 08:02:01;;;;;;;26.25;19.80;;;18.90;99.90;;;;;;5010312;28;20176;-72
2022/09/11 08:04:27;;;;;;;24.60;18.13;;;19.10;99.90;;;;;;4995736;28;20054;-72
2022/09/11 08:06:53;;;;;;;23.05;17.60;;;19.20;99.90;;;;;;5011767;28;20053;-72
2022/09/11 08:09:19;;;;;;;21.88;16.38;;;19.30;99.90;;;;;;5004516;28;20375;-72
2022/09/11 08:11:47;;;;;;;21.08;15.80;;;19.30;99.90;;;;;;5022298;28;20442;-73
2022/09/11 08:14:16;;;;;;;23.33;16.08;;;19.30;99.90;;;;;;5010844;28;20034;-72
2022/09/11 08:16:43;;;;;;;22.10;16.95;;;19.40;99.90;;;;;;4983104;28;20046;-73
2022/09/11 08:19:16;;;;;;;20.08;14.98;;;19.50;99.90;;;;;;4993566;28;20069;-72
2022/09/11 08:21:42;;;;;;;17.23;14.30;;;19.60;99.90;;;;;;4984249;28;20164;-72
2022/09/11 08:24:10;;;;;;;15.50;11.80;;;19.70;99.90;;;;;;5012659;28;20046;-72
2022/09/11 08:26:36;;;;;;;15.13;10.93;;;19.80;99.90;;;;;;5014027;28;20069;-73
2022/09/11 08:29:04;;;;;;;13.18;11.15;;;20.00;99.90;;;;;;5014567;28;20084;-72
2022/09/11 08:31:31;;;;;;;12.45;9.35;;;20.20;99.90;;;;;;4995095;28;20053;-72
2022/09/11 08:33:57;;;;;;;13.43;10.48;;;20.30;99.90;;;;;;5010397;28;20046;-72
2022/09/11 08:36:24;;;;;;;15.52;10.90;;;20.40;99.90;;;;;;5013617;28;20065;-72
2022/09/11 08:38:51;;;;;;;11.27;9.90;;;20.60;99.90;;;;;;4998188;28;20417;-72
2022/09/11 08:41:24;;;;;;;12.73;10.18;;;20.80;99.90;;;;;;4998495;28;20054;-72
2022/09/11 08:43:55;;;;;;;10.93;8.10;;;20.90;99.90;;;;;;5015540;28;20046;-72
2022/09/11 08:46:25;;;;;;;9.75;7.45;;;21.00;99.90;;;;;;5010700;28;20050;-72
2022/09/11 08:49:02;;;;;;;9.25;6.60;;;21.10;99.90;;;;;;5008792;28;20129;-72
2022/09/11 08:51:30;;;;;;;13.05;7.97;;;21.20;99.90;;;;;;5027809;28;20045;-72
2022/09/11 08:53:58;;;;;;;10.82;7.63;;;21.20;99.90;;;;;;4997919;28;20977;-71
2022/09/11 08:56:29;;;;;;;9.40;7.82;;;21.40;99.90;;;;;;4996201;28;20065;-71
2022/09/11 08:59:22;;;;;;;10.27;7.73;;;21.50;99.90;;;;;;5009772;28;20064;-72
2022/09/11 09:01:56;;;;;;;5.75;4.40;;;21.30;99.90;;;;;;5014423;28;20456;-72
2022/09/11 09:04:58;;;;;;;6.40;4.10;;;21.30;99.90;;;;;;4998798;28;20042;-72
2022/09/11 09:07:51;;;;;;;22.42;4.85;;;21.20;99.90;;;;;;5014838;28;20038;-72
2022/09/11 09:10:35;;;;;;;6.95;4.60;;;21.40;99.90;;;;;;5012597;28;20502;-72
2022/09/11 09:13:16;;;;;;;8.30;4.90;;;21.50;99.90;;;;;;5015164;28;20050;-72
2022/09/11 09:16:08;;;;;;;7.32;5.38;;;21.70;99.90;;;;;;5012062;28;20185;-72
2022/09/11 09:18:52;;;;;;;8.07;5.43;;;22.00;99.90;;;;;;5010966;28;20042;-72
2022/09/11 09:21:31;;;;;;;8.15;5.85;;;22.10;99.90;;;;;;5015115;28;20048;-72
2022/09/11 09:24:01;;;;;;;9.90;6.70;;;22.30;99.90;;;;;;5011872;28;20034;-72
2022/09/11 09:26:33;;;;;;;7.18;5.45;;;22.50;99.90;;;;;;5000173;28;20053;-72
2022/09/11 09:29:13;;;;;;;8.98;6.10;;;22.50;99.90;;;;;;5014318;28;20352;-72
2022/09/11 09:31:41;;;;;;;5.20;3.88;;;22.80;99.90;;;;;;5031030;28;20550;-72
2022/09/11 09:34:15;;;;;;;6.63;4.30;;;23.00;99.90;;;;;;5011592;28;20054;-71
2022/09/11 09:37:03;;;;;;;5.90;4.10;;;23.20;99.90;;;;;;5016375;28;20076;-72
2022/09/11 09:39:29;;;;;;;7.50;5.00;;;23.40;99.90;;;;;;5012877;28;20038;-72
2022/09/11 09:42:01;;;;;;;7.60;4.95;;;23.50;99.90;;;;;;4998437;28;20037;-72
2022/09/11 09:45:00;;;;;;;6.68;5.10;;;23.50;99.90;;;;;;5014778;28;20053;-72
2022/09/11 09:47:28;;;;;;;8.55;5.18;;;23.40;99.90;;;;;;5009918;28;20080;-72
2022/09/11 09:49:57;;;;;;;6.32;3.65;;;23.40;99.90;;;;;;4992062;28;20061;-72
2022/09/11 09:52:26;;;;;;;5.93;3.78;;;23.50;99.90;;;;;;4996973;28;20141;-72
2022/09/11 09:55:12;;;;;;;6.97;4.38;;;23.60;99.90;;;;;;5013667;28;20038;-72
2022/09/11 09:57:38;;;;;;;8.18;4.85;;;23.50;99.90;;;;;;5011224;28;20116;-72
2022/09/11 10:00:09;;;;;;;7.70;5.07;;;23.30;99.90;;;;;;5020287;28;20057;-72
2022/09/11 10:02:40;;;;;;;8.32;5.45;;;23.20;99.90;;;;;;5007463;28;20128;-72
2022/09/11 10:05:24;;;;;;;5.40;3.90;;;23.10;99.90;;;;;;4978499;28;20053;-72
2022/09/11 10:08:04;;;;;;;5.35;3.45;;;23.20;99.90;;;;;;5015813;28;20533;-72
2022/09/11 10:10:36;;;;;;;5.90;3.78;;;23.20;99.90;;;;;;4996990;28;20054;-72
2022/09/11 10:13:17;;;;;;;6.72;4.05;;;23.30;99.90;;;;;;5025283;28;20145;-71
2022/09/11 10:15:47;;;;;;;6.57;4.30;;;23.30;99.90;;;;;;5008869;28;20060;-71
2022/09/11 10:18:28;;;;;;;8.00;4.50;;;23.30;99.90;;;;;;4997580;28;20471;-72
2022/09/11 10:21:20;;;;;;;7.13;4.30;;;23.20;99.90;;;;;;5013399;28;20056;-72
2022/09/11 10:23:51;;;;;;;6.63;3.85;;;23.10;99.90;;;;;;5013600;28;20096;-72
2022/09/11 10:26:30;;;;;;;5.55;3.70;;;23.10;99.90;;;;;;4996760;28;20046;-72
2022/09/11 10:29:18;;;;;;;4.90;3.63;;;23.10;99.90;;;;;;4991239;28;20496;-72
2022/09/11 10:31:49;;;;;;;7.75;5.15;;;23.20;99.90;;;;;;5011877;28;20049;-72
2022/09/11 10:34:18;;;;;;;9.32;5.03;;;23.50;99.90;;;;;;5013289;28;20364;-73
2022/09/11 10:36:57;;;;;;;6.25;4.22;;;23.60;99.90;;;;;;5008740;28;20045;-72
2022/09/11 10:39:26;;;;;;;6.68;4.78;;;23.80;99.90;;;;;;5013125;28;20048;-73
2022/09/11 10:41:56;;;;;;;8.30;4.35;;;23.90;99.90;;;;;;4996617;28;20042;-73
2022/09/11 10:44:23;;;;;;;4.85;4.00;;;24.00;99.90;;;;;;5005894;28;20061;-73
2022/09/11 10:47:05;;;;;;;7.32;2.60;;;23.90;99.90;;;;;;5009918;28;20049;-73
2022/09/11 10:49:32;;;;;;;3.75;2.38;;;24.00;99.90;;;;;;5004025;28;20042;-73
2022/09/11 10:52:02;;;;;;;3.05;1.70;;;24.10;99.90;;;;;;4980055;28;20490;-72
2022/09/11 10:54:52;;;;;;;3.40;2.38;;;24.20;99.90;;;;;;5012918;28;20049;-72
2022/09/11 10:57:19;;;;;;;3.42;2.50;;;24.30;99.90;;;;;;5011355;28;20530;-73
2022/09/11 11:00:12;;;;;;;2.13;1.58;;;24.20;99.90;;;;;;5012705;28;20045;-73
2022/09/11 11:02:44;;;;;;;4.75;2.00;;;24.20;99.90;;;;;;4988342;28;20123;-72
2022/09/11 11:05:19;;;;;;;3.33;1.92;;;24.40;99.90;;;;;;4991436;28;20483;-72
2022/09/11 11:07:56;;;;;;;4.50;2.35;;;24.20;99.90;;;;;;5007813;28;20169;-72
2022/09/11 11:10:51;;;;;;;3.17;2.60;;;24.10;99.90;;;;;;5007293;28;20046;-72
2022/09/11 11:14:08;;;;;;;3.20;2.90;;;24.10;99.90;;;;;;5012840;28;20063;-72
2022/09/11 11:17:01;;;;;;;3.65;2.53;;;24.10;99.90;;;;;;4955700;28;20038;-72
2022/09/11 11:19:52;;;;;;;4.10;2.30;;;24.40;99.90;;;;;;4950021;28;20480;-72
2022/09/11 11:22:51;;;;;;;2.93;2.30;;;24.50;99.90;;;;;;4969773;28;20175;-72
2022/09/11 11:25:26;;;;;;;3.53;2.33;;;24.40;99.90;;;;;;4993013;28;20281;-72
2022/09/11 11:28:36;;;;;;;2.42;1.80;;;24.30;99.90;;;;;;4976672;28;20046;-72
2022/09/11 11:31:16;;;;;;;3.03;1.92;;;24.20;99.90;;;;;;4973118;28;20065;-72
2022/09/11 11:34:08;;;;;;;2.72;1.90;;;24.00;99.90;;;;;;4990605;28;20497;-73
2022/09/11 11:36:54;;;;;;;2.65;1.75;;;23.80;99.90;;;;;;5006206;28;20499;-72
2022/09/11 11:39:55;;;;;;;2.97;2.30;;;23.50;99.90;;;;;;5011303;28;20482;-73
2022/09/11 11:42:29;;;;;;;3.78;1.85;;;23.30;99.90;;;;;;4991962;28;20616;-73
2022/09/11 11:45:19;;;;;;;4.00;1.95;;;23.10;99.90;;;;;;4992953;28;20164;-73
2022/09/11 11:47:47;;;;;;;3.55;2.75;;;22.90;99.90;;;;;;5012383;28;20041;-73
2022/09/11 11:50:20;;;;;;;3.42;2.53;;;22.70;99.90;;;;;;5026359;28;20054;-72
2022/09/11 11:53:40;;;;;;;3.00;2.40;;;22.60;99.90;;;;;;5024261;28;20144;-72
2022/09/11 11:56:08;;;;;;;3.13;2.28;;;22.40;99.90;;;;;;4955584;28;20042;-73
2022/09/11 11:58:52;;;;;;;5.50;2.90;;;22.20;99.90;;;;;;4938753;28;20105;-72
2022/09/11 12:01:43;;;;;;;5.82;3.03;;;21.90;99.90;;;;;;5002218;28;20054;-71
2022/09/11 12:04:16;;;;;;;7.05;3.30;;;21.60;99.90;;;;;;4993007;28;20100;-71
2022/09/11 12:06:42;;;;;;;4.30;2.65;;;21.50;99.90;;;;;;5006130;28;20488;-71
2022/09/11 12:09:11;;;;;;;5.03;3.50;;;21.30;99.90;;;;;;4995531;28;20042;-71
2022/09/11 12:11:38;;;;;;;3.75;2.60;;;21.30;99.90;;;;;;5011307;28;20602;-71
2022/09/11 12:14:06;;;;;;;5.97;2.90;;;21.10;99.90;;;;;;4990138;28;20052;-72
2022/09/11 12:16:33;;;;;;;4.85;2.78;;;21.00;99.90;;;;;;5007141;28;20044;-72
2022/09/11 12:18:59;;;;;;;5.80;3.63;;;20.90;99.90;;;;;;5009403;28;20073;-72
2022/09/11 12:21:30;;;;;;;4.63;3.13;;;20.80;99.90;;;;;;5024918;28;20045;-72
2022/09/11 12:23:56;;;;;;;7.13;4.13;;;20.60;99.90;;;;;;4988514;28;20467;-72
2022/09/11 12:26:26;;;;;;;6.07;3.95;;;20.20;99.90;;;;;;5027288;28;20049;-72
2022/09/11 12:29:11;;;;;;;5.77;4.40;;;20.50;99.90;;;;;;5012055;28;20046;-71
2022/09/11 12:31:49;;;;;;;6.53;4.40;;;20.30;99.90;;;;;;5027909;28;20339;-71
2022/09/11 12:34:43;;;;;;;7.82;4.88;;;20.30;99.90;;;;;;5009335;28;20499;-71
2022/09/11 12:37:36;;;;;;;5.80;4.28;;;20.40;99.90;;;;;;5010628;28;20049;-72
2022/09/11 12:40:17;;;;;;;7.03;4.72;;;20.30;99.90;;;;;;4991424;28;20070;-72
2022/09/11 12:42:56;;;;;;;8.77;5.68;;;20.40;99.90;;;;;;4990740;28;20041;-72
2022/09/11 12:45:37;;;;;;;8.38;5.13;;;20.40;99.90;;;;;;4995464;28;20056;-72
2022/09/11 12:48:10;;;;;;;8.50;5.47;;;20.50;99.90;;;;;;4994816;28;20069;-72
2022/09/11 12:50:37;;;;;;;5.78;4.85;;;20.70;99.90;;;;;;5007664;28;20804;-72
2022/09/11 12:53:07;;;;;;;7.93;5.28;;;20.80;99.90;;;;;;4994930;28;20050;-72
2022/09/11 12:55:48;;;;;;;8.27;5.70;;;21.00;99.90;;;;;;5011762;28;20494;-72
2022/09/11 12:58:20;;;;;;;;;;;21.10;99.90;;;;;;5011103;28;20048;-73